ロングイェールビーン の空港の天気 - METARとTAF

スヴァールバル空港 ( ENSB / LYR ) - スヴァールバル諸島・ヤンマイエン島 ロングイェールビーン
飛行場実況気象(Metar)
観測時間03/23 10:50 CET (03/23 09:50 UTC)
風向・風速西南西 3m/s
視程7000m
天気現象弱いしゅう雪
少しの雲 雲底高度 300m
全天の4割程度の雲 雲底高度 1520m
全天の8割程度の雲 雲底高度 1070m
気温-7℃
湿度86%
気圧992hPa
METARENSB 230950Z 25005KT 7000 -SHSN FEW010 SCT050 BKN035 M07/M09 Q0992 TEMPO 2000 SHSN VV012
過去の天気等 Google飛行場航空写真 Wunderground天気予報

過去48時間のMETAR

飛行場予報(TAF)
発表時間: -
23日9時 CET ~ 24日1時 CET に一時的に
風向・風速西北西 8m/s
23日9時 CET ~ 23日19時 CET に一時的に
視程2,000m
天気現象しゅう雪 低い地吹雪
全天を覆う雲 鉛直視程 300m
TAF AMD ENSB 2308/2406 12008KT 9999 FEW010 BKN025
TEMPO 2308/2324 29015KT
TEMPO 2308/2318 2000 SHSN DRSN VV010